sensor_id;sensor_type;location;lat;lon;timestamp;P1;durP1;ratioP1;P2;durP2;ratioP2
52734;SDS011;38631;47.572;10.704;2023-07-29T00:01:36;1.98;;;1.42;;
52734;SDS011;38631;47.572;10.704;2023-07-29T00:04:01;2.25;;;1.58;;
52734;SDS011;38631;47.572;10.704;2023-07-29T00:06:27;2.75;;;2.08;;
52734;SDS011;38631;47.572;10.704;2023-07-29T00:08:53;3.67;;;1.80;;
52734;SDS011;38631;47.572;10.704;2023-07-29T00:11:18;2.88;;;1.60;;
52734;SDS011;38631;47.572;10.704;2023-07-29T00:13:43;3.22;;;1.73;;
52734;SDS011;38631;47.572;10.704;2023-07-29T00:16:09;2.80;;;1.80;;
52734;SDS011;38631;47.572;10.704;2023-07-29T00:18:35;4.65;;;1.58;;
52734;SDS011;38631;47.572;10.704;2023-07-29T00:21:00;2.75;;;1.70;;
52734;SDS011;38631;47.572;10.704;2023-07-29T00:23:26;2.55;;;1.73;;
52734;SDS011;38631;47.572;10.704;2023-07-29T00:25:52;2.83;;;1.63;;
52734;SDS011;38631;47.572;10.704;2023-07-29T00:28:17;2.88;;;1.73;;
52734;SDS011;38631;47.572;10.704;2023-07-29T00:30:43;2.28;;;1.67;;
52734;SDS011;38631;47.572;10.704;2023-07-29T00:33:08;2.25;;;1.40;;
52734;SDS011;38631;47.572;10.704;2023-07-29T00:35:34;3.22;;;1.90;;
52734;SDS011;38631;47.572;10.704;2023-07-29T00:38:00;2.28;;;1.50;;
52734;SDS011;38631;47.572;10.704;2023-07-29T00:40:25;2.67;;;1.50;;
52734;SDS011;38631;47.572;10.704;2023-07-29T00:42:53;10.70;;;1.90;;
52734;SDS011;38631;47.572;10.704;2023-07-29T00:45:19;2.17;;;1.63;;
52734;SDS011;38631;47.572;10.704;2023-07-29T00:47:44;2.92;;;1.52;;
52734;SDS011;38631;47.572;10.704;2023-07-29T00:50:11;2.25;;;1.50;;
52734;SDS011;38631;47.572;10.704;2023-07-29T00:52:37;2.42;;;1.65;;
52734;SDS011;38631;47.572;10.704;2023-07-29T00:55:03;3.03;;;1.75;;
52734;SDS011;38631;47.572;10.704;2023-07-29T00:57:29;2.35;;;1.67;;
52734;SDS011;38631;47.572;10.704;2023-07-29T00:59:55;1.92;;;1.33;;
52734;SDS011;38631;47.572;10.704;2023-07-29T01:02:21;1.98;;;1.42;;
52734;SDS011;38631;47.572;10.704;2023-07-29T01:04:51;2.90;;;1.80;;
52734;SDS011;38631;47.572;10.704;2023-07-29T01:10:02;2.30;;;1.60;;
52734;SDS011;38631;47.572;10.704;2023-07-29T01:15:28;2.75;;;1.55;;
52734;SDS011;38631;47.572;10.704;2023-07-29T01:18:37;2.10;;;1.50;;
52734;SDS011;38631;47.572;10.704;2023-07-29T01:20:54;2.33;;;1.60;;
52734;SDS011;38631;47.572;10.704;2023-07-29T01:23:23;2.25;;;1.55;;
52734;SDS011;38631;47.572;10.704;2023-07-29T01:25:59;1.80;;;1.40;;
52734;SDS011;38631;47.572;10.704;2023-07-29T01:28:25;2.50;;;1.90;;
52734;SDS011;38631;47.572;10.704;2023-07-29T01:30:52;2.67;;;1.90;;
52734;SDS011;38631;47.572;10.704;2023-07-29T01:33:30;2.00;;;1.30;;
52734;SDS011;38631;47.572;10.704;2023-07-29T01:36:06;2.45;;;1.90;;
52734;SDS011;38631;47.572;10.704;2023-07-29T01:38:36;2.67;;;1.70;;
52734;SDS011;38631;47.572;10.704;2023-07-29T01:41:06;2.08;;;1.35;;
52734;SDS011;38631;47.572;10.704;2023-07-29T01:43:33;2.30;;;1.70;;
52734;SDS011;38631;47.572;10.704;2023-07-29T01:46:04;3.17;;;1.60;;
52734;SDS011;38631;47.572;10.704;2023-07-29T01:48:29;2.53;;;1.52;;
52734;SDS011;38631;47.572;10.704;2023-07-29T01:50:56;2.40;;;1.48;;
52734;SDS011;38631;47.572;10.704;2023-07-29T01:53:22;2.75;;;1.40;;
52734;SDS011;38631;47.572;10.704;2023-07-29T01:55:47;3.58;;;2.20;;
52734;SDS011;38631;47.572;10.704;2023-07-29T01:58:13;2.28;;;1.80;;
52734;SDS011;38631;47.572;10.704;2023-07-29T02:00:39;2.30;;;1.50;;
52734;SDS011;38631;47.572;10.704;2023-07-29T02:03:04;2.58;;;1.58;;
52734;SDS011;38631;47.572;10.704;2023-07-29T02:05:30;2.28;;;1.60;;
52734;SDS011;38631;47.572;10.704;2023-07-29T02:07:55;2.20;;;1.35;;
52734;SDS011;38631;47.572;10.704;2023-07-29T02:10:21;3.03;;;1.60;;
52734;SDS011;38631;47.572;10.704;2023-07-29T02:12:46;2.13;;;1.63;;
52734;SDS011;38631;47.572;10.704;2023-07-29T02:15:11;4.20;;;1.90;;
52734;SDS011;38631;47.572;10.704;2023-07-29T02:17:37;1.95;;;1.50;;
52734;SDS011;38631;47.572;10.704;2023-07-29T02:20:03;2.67;;;1.60;;
52734;SDS011;38631;47.572;10.704;2023-07-29T02:22:28;2.13;;;1.48;;
52734;SDS011;38631;47.572;10.704;2023-07-29T02:24:54;2.40;;;1.45;;
52734;SDS011;38631;47.572;10.704;2023-07-29T02:27:19;2.25;;;1.63;;
52734;SDS011;38631;47.572;10.704;2023-07-29T02:29:45;4.30;;;1.83;;
52734;SDS011;38631;47.572;10.704;2023-07-29T02:32:10;2.88;;;1.80;;
52734;SDS011;38631;47.572;10.704;2023-07-29T02:34:36;2.17;;;1.73;;
52734;SDS011;38631;47.572;10.704;2023-07-29T02:37:01;3.45;;;1.95;;
52734;SDS011;38631;47.572;10.704;2023-07-29T02:39:26;2.15;;;1.63;;
52734;SDS011;38631;47.572;10.704;2023-07-29T02:41:52;2.20;;;1.92;;
52734;SDS011;38631;47.572;10.704;2023-07-29T02:44:17;2.35;;;1.50;;
52734;SDS011;38631;47.572;10.704;2023-07-29T02:46:44;2.78;;;1.90;;
52734;SDS011;38631;47.572;10.704;2023-07-29T02:49:09;2.65;;;1.58;;
52734;SDS011;38631;47.572;10.704;2023-07-29T02:51:35;1.98;;;1.50;;
52734;SDS011;38631;47.572;10.704;2023-07-29T02:54:00;3.33;;;1.67;;
52734;SDS011;38631;47.572;10.704;2023-07-29T02:56:25;2.72;;;1.70;;
52734;SDS011;38631;47.572;10.704;2023-07-29T02:58:51;2.05;;;1.58;;
52734;SDS011;38631;47.572;10.704;2023-07-29T03:01:17;2.58;;;1.80;;
52734;SDS011;38631;47.572;10.704;2023-07-29T03:03:42;2.58;;;1.63;;
52734;SDS011;38631;47.572;10.704;2023-07-29T03:06:09;3.45;;;2.05;;
52734;SDS011;38631;47.572;10.704;2023-07-29T03:08:35;2.25;;;1.60;;
52734;SDS011;38631;47.572;10.704;2023-07-29T03:11:08;2.75;;;1.50;;
52734;SDS011;38631;47.572;10.704;2023-07-29T03:13:35;3.13;;;1.65;;
52734;SDS011;38631;47.572;10.704;2023-07-29T03:16:14;2.10;;;1.55;;
52734;SDS011;38631;47.572;10.704;2023-07-29T03:18:41;2.78;;;1.70;;
52734;SDS011;38631;47.572;10.704;2023-07-29T03:21:07;1.70;;;1.30;;
52734;SDS011;38631;47.572;10.704;2023-07-29T03:23:34;2.58;;;1.45;;
52734;SDS011;38631;47.572;10.704;2023-07-29T03:26:00;3.97;;;1.63;;
52734;SDS011;38631;47.572;10.704;2023-07-29T03:28:29;2.87;;;1.80;;
52734;SDS011;38631;47.572;10.704;2023-07-29T03:30:57;2.35;;;1.60;;
52734;SDS011;38631;47.572;10.704;2023-07-29T03:33:22;3.00;;;1.70;;
52734;SDS011;38631;47.572;10.704;2023-07-29T03:35:49;2.45;;;1.63;;
52734;SDS011;38631;47.572;10.704;2023-07-29T03:38:14;3.35;;;1.80;;
52734;SDS011;38631;47.572;10.704;2023-07-29T03:40:40;2.58;;;1.80;;
52734;SDS011;38631;47.572;10.704;2023-07-29T03:43:06;3.50;;;1.40;;
52734;SDS011;38631;47.572;10.704;2023-07-29T03:45:32;2.30;;;1.70;;
52734;SDS011;38631;47.572;10.704;2023-07-29T03:47:59;2.58;;;1.83;;
52734;SDS011;38631;47.572;10.704;2023-07-29T03:50:24;2.65;;;1.77;;
52734;SDS011;38631;47.572;10.704;2023-07-29T03:52:50;2.90;;;1.60;;
52734;SDS011;38631;47.572;10.704;2023-07-29T03:55:15;2.17;;;1.58;;
52734;SDS011;38631;47.572;10.704;2023-07-29T03:57:41;2.65;;;1.98;;
52734;SDS011;38631;47.572;10.704;2023-07-29T04:00:06;2.45;;;1.70;;
52734;SDS011;38631;47.572;10.704;2023-07-29T04:02:33;3.63;;;1.98;;
52734;SDS011;38631;47.572;10.704;2023-07-29T04:05:02;2.63;;;1.70;;
52734;SDS011;38631;47.572;10.704;2023-07-29T04:07:28;3.75;;;2.28;;
52734;SDS011;38631;47.572;10.704;2023-07-29T04:09:53;2.05;;;1.35;;
52734;SDS011;38631;47.572;10.704;2023-07-29T04:12:19;3.00;;;1.77;;
52734;SDS011;38631;47.572;10.704;2023-07-29T04:14:46;3.65;;;1.60;;
52734;SDS011;38631;47.572;10.704;2023-07-29T04:17:12;2.72;;;1.85;;
52734;SDS011;38631;47.572;10.704;2023-07-29T04:19:37;1.70;;;1.35;;
52734;SDS011;38631;47.572;10.704;2023-07-29T04:22:02;2.33;;;1.80;;
52734;SDS011;38631;47.572;10.704;2023-07-29T04:24:28;2.90;;;1.80;;
52734;SDS011;38631;47.572;10.704;2023-07-29T04:26:53;2.50;;;1.73;;
52734;SDS011;38631;47.572;10.704;2023-07-29T04:29:19;2.67;;;1.90;;
52734;SDS011;38631;47.572;10.704;2023-07-29T04:31:44;2.92;;;1.80;;
52734;SDS011;38631;47.572;10.704;2023-07-29T04:34:10;2.92;;;2.03;;
52734;SDS011;38631;47.572;10.704;2023-07-29T04:36:35;2.05;;;1.52;;
52734;SDS011;38631;47.572;10.704;2023-07-29T04:39:00;5.40;;;2.15;;
52734;SDS011;38631;47.572;10.704;2023-07-29T04:41:26;3.05;;;1.90;;
52734;SDS011;38631;47.572;10.704;2023-07-29T04:43:51;2.58;;;1.95;;
52734;SDS011;38631;47.572;10.704;2023-07-29T04:46:17;3.00;;;1.80;;
52734;SDS011;38631;47.572;10.704;2023-07-29T04:48:42;3.75;;;2.10;;
52734;SDS011;38631;47.572;10.704;2023-07-29T04:51:08;3.38;;;1.80;;
52734;SDS011;38631;47.572;10.704;2023-07-29T04:53:33;3.08;;;2.00;;
52734;SDS011;38631;47.572;10.704;2023-07-29T04:56:01;3.00;;;1.73;;
52734;SDS011;38631;47.572;10.704;2023-07-29T04:58:27;2.03;;;1.70;;
52734;SDS011;38631;47.572;10.704;2023-07-29T05:00:54;3.00;;;1.90;;
52734;SDS011;38631;47.572;10.704;2023-07-29T05:03:20;3.95;;;2.60;;
52734;SDS011;38631;47.572;10.704;2023-07-29T05:05:45;3.65;;;2.17;;
52734;SDS011;38631;47.572;10.704;2023-07-29T05:08:11;3.42;;;2.50;;
52734;SDS011;38631;47.572;10.704;2023-07-29T05:10:36;3.55;;;2.60;;
52734;SDS011;38631;47.572;10.704;2023-07-29T05:13:01;3.72;;;2.40;;
52734;SDS011;38631;47.572;10.704;2023-07-29T05:15:27;3.20;;;2.15;;
52734;SDS011;38631;47.572;10.704;2023-07-29T05:17:52;2.88;;;2.30;;
52734;SDS011;38631;47.572;10.704;2023-07-29T05:20:17;4.35;;;2.20;;
52734;SDS011;38631;47.572;10.704;2023-07-29T05:22:43;2.55;;;1.95;;
52734;SDS011;38631;47.572;10.704;2023-07-29T05:25:08;3.47;;;2.20;;
52734;SDS011;38631;47.572;10.704;2023-07-29T05:27:34;2.70;;;2.08;;
52734;SDS011;38631;47.572;10.704;2023-07-29T05:29:59;3.45;;;2.38;;
52734;SDS011;38631;47.572;10.704;2023-07-29T05:32:25;7.13;;;3.15;;
52734;SDS011;38631;47.572;10.704;2023-07-29T05:34:50;2.92;;;1.85;;
52734;SDS011;38631;47.572;10.704;2023-07-29T05:37:15;4.20;;;2.50;;
52734;SDS011;38631;47.572;10.704;2023-07-29T05:39:41;3.05;;;2.05;;
52734;SDS011;38631;47.572;10.704;2023-07-29T05:42:06;5.50;;;2.40;;
52734;SDS011;38631;47.572;10.704;2023-07-29T05:44:33;3.95;;;2.28;;
52734;SDS011;38631;47.572;10.704;2023-07-29T05:46:58;4.55;;;2.17;;
52734;SDS011;38631;47.572;10.704;2023-07-29T05:49:23;3.55;;;2.28;;
52734;SDS011;38631;47.572;10.704;2023-07-29T05:51:49;3.63;;;2.30;;
52734;SDS011;38631;47.572;10.704;2023-07-29T05:54:17;3.42;;;2.67;;
52734;SDS011;38631;47.572;10.704;2023-07-29T05:56:43;4.35;;;3.60;;
52734;SDS011;38631;47.572;10.704;2023-07-29T05:59:08;2.90;;;2.10;;
52734;SDS011;38631;47.572;10.704;2023-07-29T06:01:34;2.90;;;2.17;;
52734;SDS011;38631;47.572;10.704;2023-07-29T06:03:59;3.05;;;2.40;;
52734;SDS011;38631;47.572;10.704;2023-07-29T06:06:25;4.07;;;2.38;;
52734;SDS011;38631;47.572;10.704;2023-07-29T06:08:50;3.22;;;2.20;;
52734;SDS011;38631;47.572;10.704;2023-07-29T06:11:16;3.35;;;2.05;;
52734;SDS011;38631;47.572;10.704;2023-07-29T06:13:41;3.40;;;2.40;;
52734;SDS011;38631;47.572;10.704;2023-07-29T06:16:07;4.45;;;2.25;;
52734;SDS011;38631;47.572;10.704;2023-07-29T06:18:32;4.18;;;2.63;;
52734;SDS011;38631;47.572;10.704;2023-07-29T06:20:57;3.90;;;2.47;;
52734;SDS011;38631;47.572;10.704;2023-07-29T06:23:23;3.45;;;2.42;;
52734;SDS011;38631;47.572;10.704;2023-07-29T06:25:48;4.57;;;2.67;;
52734;SDS011;38631;47.572;10.704;2023-07-29T06:28:13;4.47;;;2.70;;
52734;SDS011;38631;47.572;10.704;2023-07-29T06:30:39;5.60;;;2.85;;
52734;SDS011;38631;47.572;10.704;2023-07-29T06:33:04;2.60;;;2.13;;
52734;SDS011;38631;47.572;10.704;2023-07-29T06:35:30;5.97;;;2.78;;
52734;SDS011;38631;47.572;10.704;2023-07-29T06:37:55;4.10;;;2.58;;
52734;SDS011;38631;47.572;10.704;2023-07-29T06:40:21;4.05;;;2.78;;
52734;SDS011;38631;47.572;10.704;2023-07-29T06:42:46;3.05;;;2.25;;
52734;SDS011;38631;47.572;10.704;2023-07-29T06:45:11;4.07;;;2.55;;
52734;SDS011;38631;47.572;10.704;2023-07-29T06:47:37;4.15;;;2.60;;
52734;SDS011;38631;47.572;10.704;2023-07-29T06:50:02;3.45;;;2.42;;
52734;SDS011;38631;47.572;10.704;2023-07-29T06:52:28;4.10;;;2.80;;
52734;SDS011;38631;47.572;10.704;2023-07-29T06:54:53;3.45;;;2.20;;
52734;SDS011;38631;47.572;10.704;2023-07-29T06:57:19;3.10;;;2.38;;
52734;SDS011;38631;47.572;10.704;2023-07-29T06:59:44;2.92;;;2.50;;
52734;SDS011;38631;47.572;10.704;2023-07-29T07:02:09;3.00;;;2.15;;
52734;SDS011;38631;47.572;10.704;2023-07-29T07:04:35;3.58;;;2.33;;
52734;SDS011;38631;47.572;10.704;2023-07-29T07:07:00;4.00;;;2.38;;
52734;SDS011;38631;47.572;10.704;2023-07-29T07:09:26;3.85;;;2.88;;
52734;SDS011;38631;47.572;10.704;2023-07-29T07:11:51;3.83;;;2.67;;
52734;SDS011;38631;47.572;10.704;2023-07-29T07:14:17;3.63;;;2.60;;
52734;SDS011;38631;47.572;10.704;2023-07-29T07:16:42;4.47;;;2.78;;
52734;SDS011;38631;47.572;10.704;2023-07-29T07:19:08;4.15;;;2.17;;
52734;SDS011;38631;47.572;10.704;2023-07-29T07:21:33;3.10;;;2.17;;
52734;SDS011;38631;47.572;10.704;2023-07-29T07:23:59;3.35;;;2.40;;
52734;SDS011;38631;47.572;10.704;2023-07-29T07:26:25;6.00;;;2.55;;
52734;SDS011;38631;47.572;10.704;2023-07-29T07:28:50;3.38;;;2.40;;
52734;SDS011;38631;47.572;10.704;2023-07-29T07:31:16;4.03;;;2.42;;
52734;SDS011;38631;47.572;10.704;2023-07-29T07:33:42;4.40;;;2.63;;
52734;SDS011;38631;47.572;10.704;2023-07-29T07:36:07;3.60;;;2.45;;
52734;SDS011;38631;47.572;10.704;2023-07-29T07:38:32;3.13;;;2.30;;
52734;SDS011;38631;47.572;10.704;2023-07-29T07:40:58;4.60;;;3.17;;
52734;SDS011;38631;47.572;10.704;2023-07-29T07:43:23;3.65;;;2.58;;
52734;SDS011;38631;47.572;10.704;2023-07-29T07:45:49;5.43;;;2.60;;
52734;SDS011;38631;47.572;10.704;2023-07-29T07:48:14;4.93;;;3.03;;
52734;SDS011;38631;47.572;10.704;2023-07-29T07:50:42;5.53;;;2.80;;
52734;SDS011;38631;47.572;10.704;2023-07-29T07:53:07;3.83;;;2.60;;
52734;SDS011;38631;47.572;10.704;2023-07-29T07:55:33;4.20;;;2.70;;
52734;SDS011;38631;47.572;10.704;2023-07-29T07:57:58;3.30;;;2.63;;
52734;SDS011;38631;47.572;10.704;2023-07-29T08:00:24;4.45;;;2.88;;
52734;SDS011;38631;47.572;10.704;2023-07-29T08:02:49;3.05;;;2.45;;
52734;SDS011;38631;47.572;10.704;2023-07-29T08:05:14;3.63;;;2.60;;
52734;SDS011;38631;47.572;10.704;2023-07-29T08:07:40;3.97;;;2.78;;
52734;SDS011;38631;47.572;10.704;2023-07-29T08:10:05;5.25;;;3.67;;
52734;SDS011;38631;47.572;10.704;2023-07-29T08:12:31;3.28;;;2.45;;
52734;SDS011;38631;47.572;10.704;2023-07-29T08:14:57;3.17;;;2.40;;
52734;SDS011;38631;47.572;10.704;2023-07-29T08:17:22;4.85;;;3.03;;
52734;SDS011;38631;47.572;10.704;2023-07-29T08:19:48;5.05;;;2.78;;
52734;SDS011;38631;47.572;10.704;2023-07-29T08:22:13;3.75;;;2.85;;
52734;SDS011;38631;47.572;10.704;2023-07-29T08:24:39;3.75;;;2.92;;
52734;SDS011;38631;47.572;10.704;2023-07-29T08:27:04;3.75;;;2.83;;
52734;SDS011;38631;47.572;10.704;2023-07-29T08:29:30;3.17;;;2.55;;
52734;SDS011;38631;47.572;10.704;2023-07-29T08:31:55;3.08;;;2.22;;
52734;SDS011;38631;47.572;10.704;2023-07-29T08:34:21;3.63;;;2.72;;
52734;SDS011;38631;47.572;10.704;2023-07-29T08:36:46;5.10;;;3.00;;
52734;SDS011;38631;47.572;10.704;2023-07-29T08:39:11;3.60;;;2.50;;
52734;SDS011;38631;47.572;10.704;2023-07-29T08:41:39;3.90;;;2.75;;
52734;SDS011;38631;47.572;10.704;2023-07-29T08:44:23;3.00;;;2.25;;
52734;SDS011;38631;47.572;10.704;2023-07-29T08:46:51;5.38;;;3.05;;
52734;SDS011;38631;47.572;10.704;2023-07-29T08:49:18;4.03;;;2.70;;
52734;SDS011;38631;47.572;10.704;2023-07-29T08:51:44;3.47;;;2.53;;
52734;SDS011;38631;47.572;10.704;2023-07-29T08:54:11;4.28;;;2.83;;
52734;SDS011;38631;47.572;10.704;2023-07-29T08:56:37;3.70;;;2.58;;
52734;SDS011;38631;47.572;10.704;2023-07-29T08:59:03;3.75;;;2.90;;
52734;SDS011;38631;47.572;10.704;2023-07-29T09:01:30;4.57;;;3.10;;
52734;SDS011;38631;47.572;10.704;2023-07-29T09:03:55;4.80;;;2.83;;
52734;SDS011;38631;47.572;10.704;2023-07-29T09:06:21;3.72;;;2.67;;
52734;SDS011;38631;47.572;10.704;2023-07-29T09:08:48;4.40;;;3.10;;
52734;SDS011;38631;47.572;10.704;2023-07-29T09:11:15;4.28;;;2.80;;
52734;SDS011;38631;47.572;10.704;2023-07-29T09:13:42;4.38;;;2.42;;
52734;SDS011;38631;47.572;10.704;2023-07-29T09:16:08;3.70;;;2.80;;
52734;SDS011;38631;47.572;10.704;2023-07-29T09:18:34;4.00;;;2.78;;
52734;SDS011;38631;47.572;10.704;2023-07-29T09:20:59;4.07;;;2.58;;
52734;SDS011;38631;47.572;10.704;2023-07-29T09:23:28;4.00;;;2.92;;
52734;SDS011;38631;47.572;10.704;2023-07-29T09:26:05;3.45;;;2.30;;
52734;SDS011;38631;47.572;10.704;2023-07-29T09:28:34;4.20;;;2.80;;
52734;SDS011;38631;47.572;10.704;2023-07-29T09:31:00;3.75;;;2.65;;
52734;SDS011;38631;47.572;10.704;2023-07-29T09:33:26;3.67;;;2.60;;
52734;SDS011;38631;47.572;10.704;2023-07-29T09:35:52;3.30;;;3.00;;
52734;SDS011;38631;47.572;10.704;2023-07-29T09:38:18;3.90;;;2.72;;
52734;SDS011;38631;47.572;10.704;2023-07-29T09:40:50;3.15;;;2.70;;
52734;SDS011;38631;47.572;10.704;2023-07-29T09:43:20;3.97;;;3.00;;
52734;SDS011;38631;47.572;10.704;2023-07-29T09:45:51;5.38;;;3.08;;
52734;SDS011;38631;47.572;10.704;2023-07-29T09:48:17;3.90;;;3.03;;
52734;SDS011;38631;47.572;10.704;2023-07-29T09:50:47;4.25;;;2.60;;
52734;SDS011;38631;47.572;10.704;2023-07-29T09:53:12;3.78;;;2.70;;
52734;SDS011;38631;47.572;10.704;2023-07-29T09:55:38;4.03;;;2.63;;
52734;SDS011;38631;47.572;10.704;2023-07-29T09:58:04;3.78;;;2.60;;
52734;SDS011;38631;47.572;10.704;2023-07-29T10:00:33;4.07;;;2.45;;
52734;SDS011;38631;47.572;10.704;2023-07-29T10:02:59;6.65;;;2.80;;
52734;SDS011;38631;47.572;10.704;2023-07-29T10:05:25;3.95;;;2.65;;
52734;SDS011;38631;47.572;10.704;2023-07-29T10:07:52;3.17;;;2.65;;
52734;SDS011;38631;47.572;10.704;2023-07-29T10:10:18;3.17;;;2.72;;
52734;SDS011;38631;47.572;10.704;2023-07-29T10:12:45;4.88;;;2.72;;
52734;SDS011;38631;47.572;10.704;2023-07-29T10:15:11;5.05;;;2.90;;
52734;SDS011;38631;47.572;10.704;2023-07-29T10:17:37;3.80;;;2.75;;
52734;SDS011;38631;47.572;10.704;2023-07-29T10:20:04;4.78;;;3.13;;
52734;SDS011;38631;47.572;10.704;2023-07-29T10:22:38;3.78;;;3.00;;
52734;SDS011;38631;47.572;10.704;2023-07-29T10:27:48;3.90;;;2.90;;
52734;SDS011;38631;47.572;10.704;2023-07-29T10:30:17;5.07;;;2.65;;
52734;SDS011;38631;47.572;10.704;2023-07-29T10:32:43;3.92;;;2.55;;
52734;SDS011;38631;47.572;10.704;2023-07-29T10:35:10;3.95;;;2.60;;
52734;SDS011;38631;47.572;10.704;2023-07-29T10:37:37;3.40;;;2.53;;
52734;SDS011;38631;47.572;10.704;2023-07-29T10:40:05;3.35;;;2.50;;
52734;SDS011;38631;47.572;10.704;2023-07-29T10:42:32;2.92;;;2.33;;
52734;SDS011;38631;47.572;10.704;2023-07-29T10:44:57;3.75;;;2.13;;
52734;SDS011;38631;47.572;10.704;2023-07-29T10:47:23;3.95;;;2.67;;
52734;SDS011;38631;47.572;10.704;2023-07-29T10:49:54;2.97;;;2.33;;
52734;SDS011;38631;47.572;10.704;2023-07-29T10:55:02;3.85;;;2.05;;
52734;SDS011;38631;47.572;10.704;2023-07-29T10:59:57;3.05;;;2.28;;
52734;SDS011;38631;47.572;10.704;2023-07-29T11:02:33;3.72;;;2.13;;
52734;SDS011;38631;47.572;10.704;2023-07-29T11:05:15;2.97;;;1.98;;
52734;SDS011;38631;47.572;10.704;2023-07-29T11:07:43;2.83;;;1.95;;
52734;SDS011;38631;47.572;10.704;2023-07-29T11:10:09;2.58;;;1.77;;
52734;SDS011;38631;47.572;10.704;2023-07-29T11:12:46;2.65;;;1.88;;
52734;SDS011;38631;47.572;10.704;2023-07-29T11:15:20;3.70;;;2.25;;
52734;SDS011;38631;47.572;10.704;2023-07-29T11:17:50;2.30;;;1.80;;
52734;SDS011;38631;47.572;10.704;2023-07-29T11:20:18;3.05;;;2.22;;
52734;SDS011;38631;47.572;10.704;2023-07-29T11:22:45;3.47;;;2.05;;
52734;SDS011;38631;47.572;10.704;2023-07-29T11:25:12;3.38;;;2.65;;
52734;SDS011;38631;47.572;10.704;2023-07-29T11:27:39;3.15;;;2.13;;
52734;SDS011;38631;47.572;10.704;2023-07-29T11:30:05;2.47;;;1.90;;
52734;SDS011;38631;47.572;10.704;2023-07-29T11:32:33;3.10;;;2.08;;
52734;SDS011;38631;47.572;10.704;2023-07-29T11:35:03;3.58;;;1.77;;
52734;SDS011;38631;47.572;10.704;2023-07-29T11:37:30;3.33;;;2.35;;
52734;SDS011;38631;47.572;10.704;2023-07-29T11:39:55;3.45;;;2.00;;
52734;SDS011;38631;47.572;10.704;2023-07-29T11:42:20;3.17;;;2.42;;
52734;SDS011;38631;47.572;10.704;2023-07-29T11:44:46;3.67;;;2.20;;
52734;SDS011;38631;47.572;10.704;2023-07-29T11:47:11;3.90;;;2.35;;
52734;SDS011;38631;47.572;10.704;2023-07-29T11:49:38;2.88;;;2.28;;
52734;SDS011;38631;47.572;10.704;2023-07-29T11:52:06;2.58;;;2.05;;
52734;SDS011;38631;47.572;10.704;2023-07-29T11:54:33;4.30;;;2.72;;
52734;SDS011;38631;47.572;10.704;2023-07-29T11:57:00;3.72;;;2.60;;
52734;SDS011;38631;47.572;10.704;2023-07-29T11:59:27;5.43;;;3.03;;
52734;SDS011;38631;47.572;10.704;2023-07-29T12:01:53;3.08;;;2.45;;
52734;SDS011;38631;47.572;10.704;2023-07-29T12:04:19;4.75;;;2.53;;
52734;SDS011;38631;47.572;10.704;2023-07-29T12:06:45;3.42;;;2.63;;
52734;SDS011;38631;47.572;10.704;2023-07-29T12:09:10;4.00;;;2.97;;
52734;SDS011;38631;47.572;10.704;2023-07-29T12:11:38;3.25;;;2.65;;
52734;SDS011;38631;47.572;10.704;2023-07-29T12:14:06;4.07;;;2.45;;
52734;SDS011;38631;47.572;10.704;2023-07-29T12:16:39;3.70;;;2.50;;
52734;SDS011;38631;47.572;10.704;2023-07-29T12:19:08;3.55;;;2.60;;
52734;SDS011;38631;47.572;10.704;2023-07-29T12:21:33;3.85;;;2.75;;
52734;SDS011;38631;47.572;10.704;2023-07-29T12:24:00;3.78;;;2.50;;
52734;SDS011;38631;47.572;10.704;2023-07-29T12:26:27;3.75;;;2.40;;
52734;SDS011;38631;47.572;10.704;2023-07-29T12:28:54;4.15;;;2.63;;
52734;SDS011;38631;47.572;10.704;2023-07-29T12:31:19;4.10;;;2.55;;
52734;SDS011;38631;47.572;10.704;2023-07-29T12:33:44;3.70;;;2.97;;
52734;SDS011;38631;47.572;10.704;2023-07-29T12:36:10;4.10;;;2.83;;
52734;SDS011;38631;47.572;10.704;2023-07-29T12:38:35;6.97;;;2.38;;
52734;SDS011;38631;47.572;10.704;2023-07-29T12:41:01;4.35;;;2.83;;
52734;SDS011;38631;47.572;10.704;2023-07-29T12:43:26;3.97;;;2.85;;
52734;SDS011;38631;47.572;10.704;2023-07-29T12:45:53;4.10;;;2.67;;
52734;SDS011;38631;47.572;10.704;2023-07-29T12:48:19;5.55;;;3.42;;
52734;SDS011;38631;47.572;10.704;2023-07-29T12:50:44;4.47;;;2.60;;
52734;SDS011;38631;47.572;10.704;2023-07-29T12:53:10;3.72;;;2.40;;
52734;SDS011;38631;47.572;10.704;2023-07-29T12:55:35;4.47;;;2.80;;
52734;SDS011;38631;47.572;10.704;2023-07-29T12:58:01;3.75;;;2.72;;
52734;SDS011;38631;47.572;10.704;2023-07-29T13:00:27;4.45;;;3.00;;
52734;SDS011;38631;47.572;10.704;2023-07-29T13:02:53;5.72;;;3.08;;
52734;SDS011;38631;47.572;10.704;2023-07-29T13:05:19;6.00;;;3.30;;
52734;SDS011;38631;47.572;10.704;2023-07-29T13:07:44;3.97;;;2.85;;
52734;SDS011;38631;47.572;10.704;2023-07-29T13:10:10;5.07;;;3.30;;
52734;SDS011;38631;47.572;10.704;2023-07-29T13:12:35;4.35;;;2.83;;
52734;SDS011;38631;47.572;10.704;2023-07-29T13:15:01;3.85;;;2.70;;
52734;SDS011;38631;47.572;10.704;2023-07-29T13:17:27;4.05;;;2.85;;
52734;SDS011;38631;47.572;10.704;2023-07-29T13:19:52;4.45;;;2.83;;
52734;SDS011;38631;47.572;10.704;2023-07-29T13:22:17;3.60;;;2.55;;
52734;SDS011;38631;47.572;10.704;2023-07-29T13:24:44;3.83;;;2.53;;
52734;SDS011;38631;47.572;10.704;2023-07-29T13:27:10;3.72;;;2.88;;
52734;SDS011;38631;47.572;10.704;2023-07-29T13:29:35;5.43;;;2.92;;
52734;SDS011;38631;47.572;10.704;2023-07-29T13:32:00;4.28;;;2.95;;
52734;SDS011;38631;47.572;10.704;2023-07-29T13:34:26;4.53;;;2.78;;
52734;SDS011;38631;47.572;10.704;2023-07-29T13:36:51;4.78;;;3.22;;
52734;SDS011;38631;47.572;10.704;2023-07-29T13:39:16;4.57;;;3.20;;
52734;SDS011;38631;47.572;10.704;2023-07-29T13:41:42;4.10;;;2.90;;
52734;SDS011;38631;47.572;10.704;2023-07-29T13:44:07;4.70;;;3.00;;
52734;SDS011;38631;47.572;10.704;2023-07-29T13:46:32;4.50;;;2.90;;
52734;SDS011;38631;47.572;10.704;2023-07-29T13:48:58;3.47;;;2.63;;
52734;SDS011;38631;47.572;10.704;2023-07-29T13:51:23;3.78;;;2.70;;
52734;SDS011;38631;47.572;10.704;2023-07-29T13:53:49;4.15;;;2.70;;
52734;SDS011;38631;47.572;10.704;2023-07-29T13:56:14;3.38;;;2.53;;
52734;SDS011;38631;47.572;10.704;2023-07-29T13:58:40;3.75;;;2.90;;
52734;SDS011;38631;47.572;10.704;2023-07-29T14:01:05;4.53;;;2.85;;
52734;SDS011;38631;47.572;10.704;2023-07-29T14:03:31;3.55;;;2.78;;
52734;SDS011;38631;47.572;10.704;2023-07-29T14:05:56;3.33;;;2.72;;
52734;SDS011;38631;47.572;10.704;2023-07-29T14:08:21;4.03;;;2.65;;
52734;SDS011;38631;47.572;10.704;2023-07-29T14:10:48;4.38;;;2.63;;
52734;SDS011;38631;47.572;10.704;2023-07-29T14:13:16;4.18;;;2.65;;
52734;SDS011;38631;47.572;10.704;2023-07-29T14:15:41;3.97;;;2.70;;
52734;SDS011;38631;47.572;10.704;2023-07-29T14:18:07;3.70;;;1.88;;
52734;SDS011;38631;47.572;10.704;2023-07-29T14:20:33;5.32;;;2.08;;
52734;SDS011;38631;47.572;10.704;2023-07-29T14:22:58;2.00;;;1.52;;
52734;SDS011;38631;47.572;10.704;2023-07-29T14:25:24;2.47;;;1.40;;
52734;SDS011;38631;47.572;10.704;2023-07-29T14:27:49;2.72;;;1.45;;
52734;SDS011;38631;47.572;10.704;2023-07-29T14:30:15;2.92;;;1.65;;
52734;SDS011;38631;47.572;10.704;2023-07-29T14:32:40;2.03;;;1.60;;
52734;SDS011;38631;47.572;10.704;2023-07-29T14:35:06;3.97;;;2.10;;
52734;SDS011;38631;47.572;10.704;2023-07-29T14:37:33;2.05;;;1.35;;
52734;SDS011;38631;47.572;10.704;2023-07-29T14:39:58;4.18;;;1.40;;
52734;SDS011;38631;47.572;10.704;2023-07-29T14:42:24;2.20;;;1.33;;